sensor_id;sensor_type;location;lat;lon;timestamp;P1;durP1;ratioP1;P2;durP2;ratioP2
17235;SDS011;8734;59.272;17.780;2022-11-20T00:01:58;8.73;;;3.90;;
17235;SDS011;8734;59.272;17.780;2022-11-20T00:04:26;9.10;;;5.53;;
17235;SDS011;8734;59.272;17.780;2022-11-20T00:06:55;6.83;;;4.13;;
17235;SDS011;8734;59.272;17.780;2022-11-20T00:09:23;10.27;;;4.83;;
17235;SDS011;8734;59.272;17.780;2022-11-20T00:11:52;8.03;;;4.47;;
17235;SDS011;8734;59.272;17.780;2022-11-20T00:14:21;8.77;;;5.03;;
17235;SDS011;8734;59.272;17.780;2022-11-20T00:16:49;11.37;;;5.43;;
17235;SDS011;8734;59.272;17.780;2022-11-20T00:19:17;11.40;;;5.03;;
17235;SDS011;8734;59.272;17.780;2022-11-20T00:21:45;12.13;;;4.80;;
17235;SDS011;8734;59.272;17.780;2022-11-20T00:24:14;9.37;;;4.77;;
17235;SDS011;8734;59.272;17.780;2022-11-20T00:26:42;10.00;;;4.90;;
17235;SDS011;8734;59.272;17.780;2022-11-20T00:29:11;12.73;;;4.73;;
17235;SDS011;8734;59.272;17.780;2022-11-20T00:31:40;14.80;;;5.27;;
17235;SDS011;8734;59.272;17.780;2022-11-20T00:34:08;11.37;;;5.53;;
17235;SDS011;8734;59.272;17.780;2022-11-20T00:36:37;9.33;;;4.20;;
17235;SDS011;8734;59.272;17.780;2022-11-20T00:39:05;11.93;;;4.27;;
17235;SDS011;8734;59.272;17.780;2022-11-20T00:41:33;9.77;;;4.20;;
17235;SDS011;8734;59.272;17.780;2022-11-20T00:44:01;8.73;;;4.63;;
17235;SDS011;8734;59.272;17.780;2022-11-20T00:46:31;13.87;;;4.40;;
17235;SDS011;8734;59.272;17.780;2022-11-20T00:48:59;8.50;;;4.60;;
17235;SDS011;8734;59.272;17.780;2022-11-20T00:51:28;8.47;;;4.10;;
17235;SDS011;8734;59.272;17.780;2022-11-20T00:53:56;8.13;;;4.10;;
17235;SDS011;8734;59.272;17.780;2022-11-20T00:56:26;8.07;;;3.90;;
17235;SDS011;8734;59.272;17.780;2022-11-20T00:58:54;13.30;;;3.60;;
17235;SDS011;8734;59.272;17.780;2022-11-20T01:01:24;6.30;;;3.70;;
17235;SDS011;8734;59.272;17.780;2022-11-20T01:03:57;8.73;;;4.20;;
17235;SDS011;8734;59.272;17.780;2022-11-20T01:06:27;6.60;;;3.77;;
17235;SDS011;8734;59.272;17.780;2022-11-20T01:08:58;6.60;;;3.60;;
17235;SDS011;8734;59.272;17.780;2022-11-20T01:11:27;6.60;;;3.57;;
17235;SDS011;8734;59.272;17.780;2022-11-20T01:13:58;8.87;;;3.73;;
17235;SDS011;8734;59.272;17.780;2022-11-20T01:16:30;9.43;;;3.80;;
17235;SDS011;8734;59.272;17.780;2022-11-20T01:19:03;5.93;;;4.00;;
17235;SDS011;8734;59.272;17.780;2022-11-20T01:21:33;7.20;;;3.47;;
17235;SDS011;8734;59.272;17.780;2022-11-20T01:24:03;8.13;;;4.00;;
17235;SDS011;8734;59.272;17.780;2022-11-20T01:26:35;10.03;;;4.20;;
17235;SDS011;8734;59.272;17.780;2022-11-20T01:29:05;6.83;;;4.30;;
17235;SDS011;8734;59.272;17.780;2022-11-20T01:31:35;7.37;;;3.50;;
17235;SDS011;8734;59.272;17.780;2022-11-20T01:34:06;7.23;;;3.97;;
17235;SDS011;8734;59.272;17.780;2022-11-20T01:36:37;11.80;;;4.10;;
17235;SDS011;8734;59.272;17.780;2022-11-20T01:39:06;11.20;;;3.97;;
17235;SDS011;8734;59.272;17.780;2022-11-20T01:41:37;6.57;;;3.47;;
17235;SDS011;8734;59.272;17.780;2022-11-20T01:47:29;7.17;;;3.37;;
17235;SDS011;8734;59.272;17.780;2022-11-20T01:50:04;5.77;;;3.33;;
17235;SDS011;8734;59.272;17.780;2022-11-20T01:52:39;6.53;;;3.57;;
17235;SDS011;8734;59.272;17.780;2022-11-20T01:55:13;7.60;;;4.20;;
17235;SDS011;8734;59.272;17.780;2022-11-20T01:57:49;11.97;;;4.20;;
17235;SDS011;8734;59.272;17.780;2022-11-20T02:00:19;8.43;;;4.30;;
17235;SDS011;8734;59.272;17.780;2022-11-20T02:02:48;8.27;;;3.70;;
17235;SDS011;8734;59.272;17.780;2022-11-20T02:05:22;8.07;;;4.50;;
17235;SDS011;8734;59.272;17.780;2022-11-20T02:08:01;7.97;;;3.97;;
17235;SDS011;8734;59.272;17.780;2022-11-20T02:10:31;16.00;;;3.87;;
17235;SDS011;8734;59.272;17.780;2022-11-20T02:13:00;5.63;;;3.60;;
17235;SDS011;8734;59.272;17.780;2022-11-20T02:15:47;8.33;;;4.20;;
17235;SDS011;8734;59.272;17.780;2022-11-20T02:18:17;7.03;;;3.60;;
17235;SDS011;8734;59.272;17.780;2022-11-20T02:20:49;11.77;;;3.40;;
17235;SDS011;8734;59.272;17.780;2022-11-20T02:23:24;6.17;;;3.47;;
17235;SDS011;8734;59.272;17.780;2022-11-20T02:26:00;5.10;;;3.13;;
17235;SDS011;8734;59.272;17.780;2022-11-20T02:28:32;5.10;;;3.03;;
17235;SDS011;8734;59.272;17.780;2022-11-20T02:31:00;5.13;;;3.07;;
17235;SDS011;8734;59.272;17.780;2022-11-20T02:33:29;5.20;;;3.00;;
17235;SDS011;8734;59.272;17.780;2022-11-20T02:35:57;7.10;;;3.63;;
17235;SDS011;8734;59.272;17.780;2022-11-20T02:38:25;4.97;;;2.80;;
17235;SDS011;8734;59.272;17.780;2022-11-20T02:40:54;4.87;;;3.43;;
17235;SDS011;8734;59.272;17.780;2022-11-20T02:43:24;9.57;;;3.43;;
17235;SDS011;8734;59.272;17.780;2022-11-20T02:45:52;5.80;;;3.17;;
17235;SDS011;8734;59.272;17.780;2022-11-20T02:48:20;6.60;;;3.43;;
17235;SDS011;8734;59.272;17.780;2022-11-20T02:50:50;7.83;;;3.67;;
17235;SDS011;8734;59.272;17.780;2022-11-20T02:53:19;7.33;;;3.60;;
17235;SDS011;8734;59.272;17.780;2022-11-20T02:55:47;9.50;;;3.40;;
17235;SDS011;8734;59.272;17.780;2022-11-20T02:58:16;5.83;;;2.77;;
17235;SDS011;8734;59.272;17.780;2022-11-20T03:00:46;7.57;;;3.40;;
17235;SDS011;8734;59.272;17.780;2022-11-20T03:03:14;11.07;;;3.37;;
17235;SDS011;8734;59.272;17.780;2022-11-20T03:05:43;10.47;;;3.67;;
17235;SDS011;8734;59.272;17.780;2022-11-20T03:08:14;5.90;;;3.43;;
17235;SDS011;8734;59.272;17.780;2022-11-20T03:10:42;5.00;;;2.70;;
17235;SDS011;8734;59.272;17.780;2022-11-20T03:13:11;7.00;;;3.90;;
17235;SDS011;8734;59.272;17.780;2022-11-20T03:15:39;7.60;;;3.77;;
17235;SDS011;8734;59.272;17.780;2022-11-20T03:18:09;4.63;;;2.63;;
17235;SDS011;8734;59.272;17.780;2022-11-20T03:20:38;6.73;;;3.60;;
17235;SDS011;8734;59.272;17.780;2022-11-20T03:23:06;5.30;;;2.47;;
17235;SDS011;8734;59.272;17.780;2022-11-20T03:25:35;4.27;;;2.80;;
17235;SDS011;8734;59.272;17.780;2022-11-20T03:28:03;6.53;;;3.17;;
17235;SDS011;8734;59.272;17.780;2022-11-20T03:30:32;5.23;;;3.07;;
17235;SDS011;8734;59.272;17.780;2022-11-20T03:33:00;5.30;;;3.13;;
17235;SDS011;8734;59.272;17.780;2022-11-20T03:35:30;4.50;;;3.10;;
17235;SDS011;8734;59.272;17.780;2022-11-20T03:37:58;8.43;;;3.67;;
17235;SDS011;8734;59.272;17.780;2022-11-20T03:40:26;7.67;;;3.03;;
17235;SDS011;8734;59.272;17.780;2022-11-20T03:42:57;4.67;;;3.13;;
17235;SDS011;8734;59.272;17.780;2022-11-20T03:45:25;4.77;;;2.53;;
17235;SDS011;8734;59.272;17.780;2022-11-20T03:47:53;4.63;;;2.97;;
17235;SDS011;8734;59.272;17.780;2022-11-20T03:50:22;4.77;;;3.03;;
17235;SDS011;8734;59.272;17.780;2022-11-20T03:52:51;4.83;;;2.93;;
17235;SDS011;8734;59.272;17.780;2022-11-20T03:55:20;6.53;;;3.07;;
17235;SDS011;8734;59.272;17.780;2022-11-20T03:57:48;4.73;;;3.17;;
17235;SDS011;8734;59.272;17.780;2022-11-20T04:00:17;7.73;;;3.13;;
17235;SDS011;8734;59.272;17.780;2022-11-20T04:02:45;4.60;;;3.13;;
17235;SDS011;8734;59.272;17.780;2022-11-20T04:05:14;4.63;;;3.03;;
17235;SDS011;8734;59.272;17.780;2022-11-20T04:07:42;4.30;;;2.77;;
17235;SDS011;8734;59.272;17.780;2022-11-20T04:10:12;4.03;;;2.77;;
17235;SDS011;8734;59.272;17.780;2022-11-20T04:12:40;4.47;;;2.27;;
17235;SDS011;8734;59.272;17.780;2022-11-20T04:15:08;4.43;;;2.73;;
17235;SDS011;8734;59.272;17.780;2022-11-20T04:17:37;4.70;;;3.50;;
17235;SDS011;8734;59.272;17.780;2022-11-20T04:20:06;5.80;;;3.53;;
17235;SDS011;8734;59.272;17.780;2022-11-20T04:22:35;4.63;;;2.93;;
17235;SDS011;8734;59.272;17.780;2022-11-20T04:25:03;4.43;;;2.97;;
17235;SDS011;8734;59.272;17.780;2022-11-20T04:27:33;5.50;;;2.97;;
17235;SDS011;8734;59.272;17.780;2022-11-20T04:30:04;3.47;;;2.47;;
17235;SDS011;8734;59.272;17.780;2022-11-20T04:32:33;6.10;;;2.73;;
17235;SDS011;8734;59.272;17.780;2022-11-20T04:35:01;6.23;;;2.30;;
17235;SDS011;8734;59.272;17.780;2022-11-20T04:37:29;4.60;;;2.70;;
17235;SDS011;8734;59.272;17.780;2022-11-20T04:39:58;3.67;;;2.53;;
17235;SDS011;8734;59.272;17.780;2022-11-20T04:42:26;4.20;;;2.70;;
17235;SDS011;8734;59.272;17.780;2022-11-20T04:44:58;2.97;;;2.10;;
17235;SDS011;8734;59.272;17.780;2022-11-20T04:47:27;3.40;;;2.23;;
17235;SDS011;8734;59.272;17.780;2022-11-20T04:49:55;2.03;;;1.47;;
17235;SDS011;8734;59.272;17.780;2022-11-20T04:52:24;2.97;;;1.90;;
17235;SDS011;8734;59.272;17.780;2022-11-20T04:54:52;2.60;;;1.97;;
17235;SDS011;8734;59.272;17.780;2022-11-20T04:57:22;3.90;;;2.07;;
17235;SDS011;8734;59.272;17.780;2022-11-20T04:59:51;3.20;;;1.90;;
17235;SDS011;8734;59.272;17.780;2022-11-20T05:02:21;4.63;;;1.90;;
17235;SDS011;8734;59.272;17.780;2022-11-20T05:04:49;3.10;;;1.83;;
17235;SDS011;8734;59.272;17.780;2022-11-20T05:07:17;2.87;;;1.83;;
17235;SDS011;8734;59.272;17.780;2022-11-20T05:09:46;3.10;;;1.73;;
17235;SDS011;8734;59.272;17.780;2022-11-20T05:12:14;2.57;;;1.93;;
17235;SDS011;8734;59.272;17.780;2022-11-20T05:14:42;3.90;;;2.00;;
17235;SDS011;8734;59.272;17.780;2022-11-20T05:17:10;3.50;;;2.20;;
17235;SDS011;8734;59.272;17.780;2022-11-20T05:19:40;3.53;;;1.83;;
17235;SDS011;8734;59.272;17.780;2022-11-20T05:22:09;3.07;;;1.80;;
17235;SDS011;8734;59.272;17.780;2022-11-20T05:24:37;4.80;;;2.20;;
17235;SDS011;8734;59.272;17.780;2022-11-20T05:27:05;3.00;;;1.60;;
17235;SDS011;8734;59.272;17.780;2022-11-20T05:29:33;1.93;;;1.67;;
17235;SDS011;8734;59.272;17.780;2022-11-20T05:32:01;6.50;;;2.30;;
17235;SDS011;8734;59.272;17.780;2022-11-20T05:34:29;3.37;;;2.07;;
17235;SDS011;8734;59.272;17.780;2022-11-20T05:37:00;4.43;;;2.10;;
17235;SDS011;8734;59.272;17.780;2022-11-20T05:39:28;2.70;;;2.10;;
17235;SDS011;8734;59.272;17.780;2022-11-20T05:41:56;3.17;;;2.03;;
17235;SDS011;8734;59.272;17.780;2022-11-20T05:44:39;3.00;;;1.70;;
17235;SDS011;8734;59.272;17.780;2022-11-20T05:47:07;2.10;;;1.87;;
17235;SDS011;8734;59.272;17.780;2022-11-20T05:49:35;4.23;;;2.10;;
17235;SDS011;8734;59.272;17.780;2022-11-20T05:52:05;3.27;;;1.80;;
17235;SDS011;8734;59.272;17.780;2022-11-20T05:54:33;3.70;;;2.10;;
17235;SDS011;8734;59.272;17.780;2022-11-20T05:57:01;2.83;;;1.80;;
17235;SDS011;8734;59.272;17.780;2022-11-20T05:59:30;1.90;;;1.70;;
17235;SDS011;8734;59.272;17.780;2022-11-20T06:01:58;4.87;;;2.30;;
17235;SDS011;8734;59.272;17.780;2022-11-20T06:04:26;3.23;;;2.07;;
17235;SDS011;8734;59.272;17.780;2022-11-20T06:06:55;3.53;;;2.10;;
17235;SDS011;8734;59.272;17.780;2022-11-20T06:09:25;3.80;;;2.00;;
17235;SDS011;8734;59.272;17.780;2022-11-20T06:11:53;4.27;;;2.07;;
17235;SDS011;8734;59.272;17.780;2022-11-20T06:14:23;2.60;;;1.70;;
17235;SDS011;8734;59.272;17.780;2022-11-20T06:16:51;3.73;;;2.00;;
17235;SDS011;8734;59.272;17.780;2022-11-20T06:19:19;4.10;;;2.20;;
17235;SDS011;8734;59.272;17.780;2022-11-20T06:21:48;3.40;;;2.00;;
17235;SDS011;8734;59.272;17.780;2022-11-20T06:24:16;3.00;;;1.90;;
17235;SDS011;8734;59.272;17.780;2022-11-20T06:26:46;3.63;;;1.80;;
17235;SDS011;8734;59.272;17.780;2022-11-20T06:29:15;5.57;;;1.77;;
17235;SDS011;8734;59.272;17.780;2022-11-20T06:31:44;3.43;;;1.80;;
17235;SDS011;8734;59.272;17.780;2022-11-20T06:34:12;7.20;;;1.93;;
17235;SDS011;8734;59.272;17.780;2022-11-20T06:36:41;6.17;;;1.90;;
17235;SDS011;8734;59.272;17.780;2022-11-20T06:39:09;3.93;;;1.90;;
17235;SDS011;8734;59.272;17.780;2022-11-20T06:41:37;6.87;;;1.67;;
17235;SDS011;8734;59.272;17.780;2022-11-20T06:44:07;2.57;;;2.10;;
17235;SDS011;8734;59.272;17.780;2022-11-20T06:46:35;3.10;;;1.80;;
17235;SDS011;8734;59.272;17.780;2022-11-20T06:49:04;2.87;;;1.57;;
17235;SDS011;8734;59.272;17.780;2022-11-20T06:51:33;4.87;;;1.60;;
17235;SDS011;8734;59.272;17.780;2022-11-20T06:54:01;2.63;;;1.50;;
17235;SDS011;8734;59.272;17.780;2022-11-20T06:56:29;3.73;;;2.07;;
17235;SDS011;8734;59.272;17.780;2022-11-20T06:58:57;3.37;;;2.13;;
17235;SDS011;8734;59.272;17.780;2022-11-20T07:01:27;2.03;;;1.67;;
17235;SDS011;8734;59.272;17.780;2022-11-20T07:03:55;2.83;;;1.80;;
17235;SDS011;8734;59.272;17.780;2022-11-20T07:06:24;8.13;;;1.70;;
17235;SDS011;8734;59.272;17.780;2022-11-20T07:08:52;3.27;;;1.90;;
17235;SDS011;8734;59.272;17.780;2022-11-20T07:11:20;5.43;;;2.00;;
17235;SDS011;8734;59.272;17.780;2022-11-20T07:13:49;3.10;;;1.97;;
17235;SDS011;8734;59.272;17.780;2022-11-20T07:16:17;3.93;;;2.40;;
17235;SDS011;8734;59.272;17.780;2022-11-20T07:18:47;2.67;;;1.70;;
17235;SDS011;8734;59.272;17.780;2022-11-20T07:21:16;4.10;;;2.00;;
17235;SDS011;8734;59.272;17.780;2022-11-20T07:23:44;3.10;;;1.90;;
17235;SDS011;8734;59.272;17.780;2022-11-20T07:26:14;2.37;;;1.60;;
17235;SDS011;8734;59.272;17.780;2022-11-20T07:28:43;2.20;;;1.40;;
17235;SDS011;8734;59.272;17.780;2022-11-20T07:31:12;2.30;;;1.43;;
17235;SDS011;8734;59.272;17.780;2022-11-20T07:33:45;3.33;;;2.10;;
17235;SDS011;8734;59.272;17.780;2022-11-20T07:36:15;3.07;;;2.30;;
17235;SDS011;8734;59.272;17.780;2022-11-20T07:38:43;3.93;;;1.63;;
17235;SDS011;8734;59.272;17.780;2022-11-20T07:41:12;5.80;;;1.97;;
17235;SDS011;8734;59.272;17.780;2022-11-20T07:43:40;4.10;;;2.17;;
17235;SDS011;8734;59.272;17.780;2022-11-20T07:46:08;2.87;;;2.10;;
17235;SDS011;8734;59.272;17.780;2022-11-20T07:48:37;2.20;;;1.50;;
17235;SDS011;8734;59.272;17.780;2022-11-20T07:51:05;2.87;;;1.70;;
17235;SDS011;8734;59.272;17.780;2022-11-20T07:53:35;2.90;;;1.80;;
17235;SDS011;8734;59.272;17.780;2022-11-20T07:56:04;5.23;;;1.87;;
17235;SDS011;8734;59.272;17.780;2022-11-20T07:58:32;4.63;;;2.60;;
17235;SDS011;8734;59.272;17.780;2022-11-20T08:01:04;4.63;;;1.73;;
17235;SDS011;8734;59.272;17.780;2022-11-20T08:03:34;4.07;;;2.20;;
17235;SDS011;8734;59.272;17.780;2022-11-20T08:06:04;2.80;;;1.90;;
17235;SDS011;8734;59.272;17.780;2022-11-20T08:08:32;3.57;;;1.90;;
17235;SDS011;8734;59.272;17.780;2022-11-20T08:11:09;4.37;;;1.80;;
17235;SDS011;8734;59.272;17.780;2022-11-20T08:13:55;5.23;;;1.80;;
17235;SDS011;8734;59.272;17.780;2022-11-20T08:16:42;4.17;;;1.60;;
17235;SDS011;8734;59.272;17.780;2022-11-20T08:19:13;16.57;;;6.50;;
17235;SDS011;8734;59.272;17.780;2022-11-20T08:21:42;4.70;;;1.70;;
17235;SDS011;8734;59.272;17.780;2022-11-20T08:24:11;2.47;;;1.43;;
17235;SDS011;8734;59.272;17.780;2022-11-20T08:26:40;3.17;;;1.63;;
17235;SDS011;8734;59.272;17.780;2022-11-20T08:29:09;3.70;;;1.40;;
17235;SDS011;8734;59.272;17.780;2022-11-20T08:31:37;3.20;;;1.93;;
17235;SDS011;8734;59.272;17.780;2022-11-20T08:34:05;11.67;;;1.90;;
17235;SDS011;8734;59.272;17.780;2022-11-20T08:36:37;5.03;;;1.50;;
17235;SDS011;8734;59.272;17.780;2022-11-20T08:39:05;6.63;;;1.83;;
17235;SDS011;8734;59.272;17.780;2022-11-20T08:41:33;2.90;;;1.60;;
17235;SDS011;8734;59.272;17.780;2022-11-20T08:44:05;6.83;;;2.10;;
17235;SDS011;8734;59.272;17.780;2022-11-20T08:46:35;3.20;;;1.77;;
17235;SDS011;8734;59.272;17.780;2022-11-20T08:49:05;4.07;;;1.77;;
17235;SDS011;8734;59.272;17.780;2022-11-20T08:51:36;4.07;;;2.07;;
17235;SDS011;8734;59.272;17.780;2022-11-20T08:54:05;5.27;;;1.90;;
17235;SDS011;8734;59.272;17.780;2022-11-20T08:56:34;2.80;;;1.80;;
17235;SDS011;8734;59.272;17.780;2022-11-20T08:59:05;3.40;;;1.80;;
17235;SDS011;8734;59.272;17.780;2022-11-20T09:01:54;3.33;;;1.90;;
17235;SDS011;8734;59.272;17.780;2022-11-20T09:04:22;6.83;;;1.90;;
17235;SDS011;8734;59.272;17.780;2022-11-20T09:06:51;5.53;;;1.80;;
17235;SDS011;8734;59.272;17.780;2022-11-20T09:09:19;2.33;;;1.57;;
17235;SDS011;8734;59.272;17.780;2022-11-20T09:11:48;2.53;;;1.60;;
17235;SDS011;8734;59.272;17.780;2022-11-20T09:14:18;3.07;;;1.67;;
17235;SDS011;8734;59.272;17.780;2022-11-20T09:16:47;3.73;;;1.93;;
17235;SDS011;8734;59.272;17.780;2022-11-20T09:19:16;6.23;;;1.57;;
17235;SDS011;8734;59.272;17.780;2022-11-20T09:22:04;3.33;;;1.87;;
17235;SDS011;8734;59.272;17.780;2022-11-20T09:24:33;6.83;;;1.90;;
17235;SDS011;8734;59.272;17.780;2022-11-20T09:27:01;3.67;;;1.50;;
17235;SDS011;8734;59.272;17.780;2022-11-20T09:29:32;3.13;;;1.70;;
17235;SDS011;8734;59.272;17.780;2022-11-20T09:32:01;3.60;;;1.60;;
17235;SDS011;8734;59.272;17.780;2022-11-20T09:34:29;6.97;;;2.17;;
17235;SDS011;8734;59.272;17.780;2022-11-20T09:36:57;2.57;;;1.70;;
17235;SDS011;8734;59.272;17.780;2022-11-20T09:39:32;5.77;;;2.47;;
17235;SDS011;8734;59.272;17.780;2022-11-20T09:42:04;3.77;;;1.90;;
17235;SDS011;8734;59.272;17.780;2022-11-20T09:45:02;5.37;;;2.10;;
17235;SDS011;8734;59.272;17.780;2022-11-20T09:47:44;4.83;;;1.33;;
17235;SDS011;8734;59.272;17.780;2022-11-20T09:50:23;3.87;;;1.87;;
17235;SDS011;8734;59.272;17.780;2022-11-20T09:53:08;2.80;;;1.57;;
17235;SDS011;8734;59.272;17.780;2022-11-20T09:55:42;3.03;;;1.70;;
17235;SDS011;8734;59.272;17.780;2022-11-20T09:58:12;3.13;;;1.53;;
17235;SDS011;8734;59.272;17.780;2022-11-20T10:00:49;2.50;;;1.43;;
17235;SDS011;8734;59.272;17.780;2022-11-20T10:03:19;3.37;;;1.50;;
17235;SDS011;8734;59.272;17.780;2022-11-20T10:05:54;2.63;;;1.37;;
17235;SDS011;8734;59.272;17.780;2022-11-20T10:08:23;4.77;;;1.97;;
17235;SDS011;8734;59.272;17.780;2022-11-20T10:10:59;2.50;;;1.33;;
17235;SDS011;8734;59.272;17.780;2022-11-20T10:13:35;4.90;;;1.47;;
17235;SDS011;8734;59.272;17.780;2022-11-20T10:16:17;4.80;;;1.70;;
17235;SDS011;8734;59.272;17.780;2022-11-20T10:18:54;4.53;;;1.93;;
17235;SDS011;8734;59.272;17.780;2022-11-20T10:21:35;2.40;;;1.73;;
17235;SDS011;8734;59.272;17.780;2022-11-20T10:24:23;2.87;;;1.77;;
17235;SDS011;8734;59.272;17.780;2022-11-20T10:27:02;5.13;;;1.97;;
17235;SDS011;8734;59.272;17.780;2022-11-20T10:29:43;2.23;;;1.30;;
17235;SDS011;8734;59.272;17.780;2022-11-20T10:32:18;2.83;;;1.83;;
17235;SDS011;8734;59.272;17.780;2022-11-20T10:34:49;2.10;;;1.67;;
17235;SDS011;8734;59.272;17.780;2022-11-20T10:37:23;6.53;;;1.77;;
17235;SDS011;8734;59.272;17.780;2022-11-20T10:39:54;2.00;;;1.60;;
17235;SDS011;8734;59.272;17.780;2022-11-20T10:42:32;2.07;;;1.50;;
17235;SDS011;8734;59.272;17.780;2022-11-20T10:45:10;3.03;;;1.60;;
17235;SDS011;8734;59.272;17.780;2022-11-20T10:47:48;2.47;;;1.53;;
17235;SDS011;8734;59.272;17.780;2022-11-20T10:50:18;4.37;;;1.43;;
17235;SDS011;8734;59.272;17.780;2022-11-20T10:52:51;2.97;;;1.63;;
17235;SDS011;8734;59.272;17.780;2022-11-20T10:55:32;3.80;;;2.00;;
17235;SDS011;8734;59.272;17.780;2022-11-20T10:58:10;3.03;;;1.70;;
17235;SDS011;8734;59.272;17.780;2022-11-20T11:00:41;5.30;;;1.50;;
17235;SDS011;8734;59.272;17.780;2022-11-20T11:03:20;1.20;;;1.10;;
17235;SDS011;8734;59.272;17.780;2022-11-20T11:05:54;4.93;;;1.67;;
17235;SDS011;8734;59.272;17.780;2022-11-20T11:08:28;6.50;;;1.70;;
17235;SDS011;8734;59.272;17.780;2022-11-20T11:11:07;2.37;;;1.70;;
17235;SDS011;8734;59.272;17.780;2022-11-20T11:13:48;5.13;;;1.80;;
17235;SDS011;8734;59.272;17.780;2022-11-20T11:16:19;2.40;;;1.80;;
17235;SDS011;8734;59.272;17.780;2022-11-20T11:18:50;6.23;;;2.13;;
17235;SDS011;8734;59.272;17.780;2022-11-20T11:21:22;4.37;;;1.87;;
17235;SDS011;8734;59.272;17.780;2022-11-20T11:23:57;4.47;;;1.87;;
17235;SDS011;8734;59.272;17.780;2022-11-20T11:26:51;4.40;;;2.03;;
17235;SDS011;8734;59.272;17.780;2022-11-20T11:29:22;2.87;;;1.77;;
17235;SDS011;8734;59.272;17.780;2022-11-20T11:32:02;2.73;;;1.87;;
17235;SDS011;8734;59.272;17.780;2022-11-20T11:34:33;2.73;;;1.53;;
17235;SDS011;8734;59.272;17.780;2022-11-20T11:37:02;9.00;;;1.97;;
17235;SDS011;8734;59.272;17.780;2022-11-20T11:39:31;4.00;;;1.97;;
17235;SDS011;8734;59.272;17.780;2022-11-20T11:42:00;2.47;;;1.60;;
17235;SDS011;8734;59.272;17.780;2022-11-20T11:44:30;3.30;;;1.70;;
17235;SDS011;8734;59.272;17.780;2022-11-20T11:47:21;4.33;;;2.03;;
17235;SDS011;8734;59.272;17.780;2022-11-20T11:50:02;2.43;;;1.77;;
17235;SDS011;8734;59.272;17.780;2022-11-20T11:52:43;4.27;;;1.87;;
17235;SDS011;8734;59.272;17.780;2022-11-20T11:55:14;3.77;;;2.30;;
17235;SDS011;8734;59.272;17.780;2022-11-20T11:57:53;3.20;;;1.90;;
17235;SDS011;8734;59.272;17.780;2022-11-20T12:00:25;3.93;;;2.20;;
17235;SDS011;8734;59.272;17.780;2022-11-20T12:02:57;4.03;;;1.90;;
17235;SDS011;8734;59.272;17.780;2022-11-20T12:05:36;3.87;;;2.17;;
17235;SDS011;8734;59.272;17.780;2022-11-20T12:08:12;4.73;;;2.07;;
17235;SDS011;8734;59.272;17.780;2022-11-20T12:10:45;2.83;;;1.80;;
17235;SDS011;8734;59.272;17.780;2022-11-20T12:13:24;3.37;;;2.37;;
17235;SDS011;8734;59.272;17.780;2022-11-20T12:16:02;3.23;;;2.03;;
17235;SDS011;8734;59.272;17.780;2022-11-20T12:18:36;3.70;;;2.30;;
17235;SDS011;8734;59.272;17.780;2022-11-20T12:21:09;6.63;;;1.93;;
17235;SDS011;8734;59.272;17.780;2022-11-20T12:23:50;3.60;;;1.90;;
17235;SDS011;8734;59.272;17.780;2022-11-20T12:26:42;5.07;;;2.23;;
17235;SDS011;8734;59.272;17.780;2022-11-20T12:29:23;5.77;;;2.23;;
17235;SDS011;8734;59.272;17.780;2022-11-20T12:32:03;6.70;;;2.60;;
17235;SDS011;8734;59.272;17.780;2022-11-20T12:34:54;3.00;;;2.10;;
17235;SDS011;8734;59.272;17.780;2022-11-20T12:37:38;2.20;;;1.77;;
17235;SDS011;8734;59.272;17.780;2022-11-20T12:40:18;2.73;;;1.80;;
17235;SDS011;8734;59.272;17.780;2022-11-20T12:42:58;3.57;;;1.83;;
17235;SDS011;8734;59.272;17.780;2022-11-20T12:48:49;3.47;;;2.10;;
17235;SDS011;8734;59.272;17.780;2022-11-20T12:51:57;2.80;;;1.43;;
17235;SDS011;8734;59.272;17.780;2022-11-20T12:57:39;5.97;;;2.10;;
17235;SDS011;8734;59.272;17.780;2022-11-20T13:00:17;3.23;;;1.83;;
17235;SDS011;8734;59.272;17.780;2022-11-20T13:03:00;3.80;;;1.70;;
17235;SDS011;8734;59.272;17.780;2022-11-20T13:05:54;3.17;;;1.70;;
17235;SDS011;8734;59.272;17.780;2022-11-20T13:08:29;2.87;;;1.87;;
17235;SDS011;8734;59.272;17.780;2022-11-20T13:11:03;3.77;;;1.87;;
17235;SDS011;8734;59.272;17.780;2022-11-20T13:13:42;3.07;;;2.10;;
17235;SDS011;8734;59.272;17.780;2022-11-20T13:16:25;5.03;;;2.20;;
17235;SDS011;8734;59.272;17.780;2022-11-20T13:19:01;3.40;;;1.80;;
17235;SDS011;8734;59.272;17.780;2022-11-20T13:21:35;4.00;;;2.37;;
17235;SDS011;8734;59.272;17.780;2022-11-20T13:24:06;5.40;;;1.93;;
17235;SDS011;8734;59.272;17.780;2022-11-20T13:26:36;3.30;;;2.33;;
17235;SDS011;8734;59.272;17.780;2022-11-20T13:29:07;6.80;;;2.90;;
17235;SDS011;8734;59.272;17.780;2022-11-20T13:31:40;5.23;;;2.93;;
17235;SDS011;8734;59.272;17.780;2022-11-20T13:34:11;6.90;;;3.00;;
17235;SDS011;8734;59.272;17.780;2022-11-20T13:36:48;5.90;;;2.40;;
17235;SDS011;8734;59.272;17.780;2022-11-20T13:39:24;5.23;;;2.60;;
17235;SDS011;8734;59.272;17.780;2022-11-20T13:41:55;7.47;;;3.00;;
17235;SDS011;8734;59.272;17.780;2022-11-20T13:44:26;6.47;;;2.53;;
17235;SDS011;8734;59.272;17.780;2022-11-20T13:46:58;6.00;;;3.00;;
17235;SDS011;8734;59.272;17.780;2022-11-20T13:49:26;6.13;;;2.67;;
17235;SDS011;8734;59.272;17.780;2022-11-20T13:52:03;8.90;;;3.37;;
17235;SDS011;8734;59.272;17.780;2022-11-20T13:54:56;6.80;;;3.30;;
17235;SDS011;8734;59.272;17.780;2022-11-20T13:57:52;8.10;;;3.73;;
17235;SDS011;8734;59.272;17.780;2022-11-20T14:00:30;7.97;;;3.90;;
17235;SDS011;8734;59.272;17.780;2022-11-20T14:03:01;9.33;;;3.73;;
17235;SDS011;8734;59.272;17.780;2022-11-20T14:05:39;10.20;;;4.00;;
17235;SDS011;8734;59.272;17.780;2022-11-20T14:08:17;7.07;;;3.43;;
17235;SDS011;8734;59.272;17.780;2022-11-20T14:11:02;10.00;;;3.80;;
17235;SDS011;8734;59.272;17.780;2022-11-20T14:13:33;9.50;;;4.20;;
17235;SDS011;8734;59.272;17.780;2022-11-20T14:16:01;13.97;;;4.20;;
17235;SDS011;8734;59.272;17.780;2022-11-20T14:18:29;10.07;;;4.47;;
17235;SDS011;8734;59.272;17.780;2022-11-20T14:21:00;5.83;;;2.90;;
17235;SDS011;8734;59.272;17.780;2022-11-20T14:23:30;15.37;;;3.57;;
17235;SDS011;8734;59.272;17.780;2022-11-20T14:25:58;5.00;;;2.90;;
17235;SDS011;8734;59.272;17.780;2022-11-20T14:28:27;8.23;;;2.87;;
17235;SDS011;8734;59.272;17.780;2022-11-20T14:30:59;7.23;;;3.43;;
17235;SDS011;8734;59.272;17.780;2022-11-20T14:33:27;8.57;;;2.60;;
17235;SDS011;8734;59.272;17.780;2022-11-20T14:35:56;4.50;;;2.43;;
17235;SDS011;8734;59.272;17.780;2022-11-20T14:38:28;6.00;;;3.23;;
17235;SDS011;8734;59.272;17.780;2022-11-20T14:41:05;5.53;;;3.13;;
17235;SDS011;8734;59.272;17.780;2022-11-20T14:43:34;4.97;;;2.90;;
17235;SDS011;8734;59.272;17.780;2022-11-20T14:46:08;6.17;;;2.80;;
17235;SDS011;8734;59.272;17.780;2022-11-20T14:48:38;5.73;;;2.60;;
17235;SDS011;8734;59.272;17.780;2022-11-20T14:51:09;3.57;;;2.33;;
17235;SDS011;8734;59.272;17.780;2022-11-20T14:53:38;2.57;;;1.90;;
17235;SDS011;8734;59.272;17.780;2022-11-20T14:56:07;5.03;;;2.40;;
17235;SDS011;8734;59.272;17.780;2022-11-20T14:58:36;5.07;;;2.37;;
17235;SDS011;8734;59.272;17.780;2022-11-20T15:01:06;10.67;;;2.47;;
17235;SDS011;8734;59.272;17.780;2022-11-20T15:03:40;4.13;;;2.10;;
17235;SDS011;8734;59.272;17.780;2022-11-20T15:06:10;2.97;;;1.93;;
17235;SDS011;8734;59.272;17.780;2022-11-20T15:08:39;4.07;;;2.10;;
17235;SDS011;8734;59.272;17.780;2022-11-20T15:11:27;4.57;;;2.77;;
17235;SDS011;8734;59.272;17.780;2022-11-20T15:13:58;6.77;;;2.60;;
17235;SDS011;8734;59.272;17.780;2022-11-20T15:16:33;6.00;;;2.77;;
17235;SDS011;8734;59.272;17.780;2022-11-20T15:19:01;4.17;;;2.20;;
17235;SDS011;8734;59.272;17.780;2022-11-20T15:21:39;6.10;;;2.87;;
17235;SDS011;8734;59.272;17.780;2022-11-20T15:24:08;4.87;;;2.73;;